Time;durP1;ratioP1;P1;durP2;ratioP2;P2;SDS_P1;SDS_P2;PMS_P1;PMS_P2;Temp;Humidity;BMP_temperature;BMP_pressure;BME280_temperature;BME280_humidity;BME280_pressure;Samples;Min_cycle;Max_cycle;Signal;HPM_P1;HPM_P2
2023/04/16 00:01:57;;;;;;;104.75;32.85;;;;;;;;;;5048146;28;20295;-69
2023/04/16 00:04:22;;;;;;;94.47;31.30;;;;;;;;;;5047638;28;20296;-69
2023/04/16 00:06:47;;;;;;;102.13;31.95;;;;;;;;;;5046453;28;20182;-70
2023/04/16 00:09:13;;;;;;;102.75;33.17;;;;;;;;;;5045292;28;20189;-70
2023/04/16 00:11:38;;;;;;;98.35;33.25;;;;;;;;;;5028502;28;20665;-71
2023/04/16 00:14:04;;;;;;;105.30;33.33;;;;;;;;;;5033500;28;20185;-70
2023/04/16 00:16:30;;;;;;;100.53;33.22;;;;;;;;;;5044214;28;20185;-69
2023/04/16 00:18:55;;;;;;;95.57;33.35;;;;;;;;;;5046088;28;20185;-69
2023/04/16 00:21:21;;;;;;;93.43;33.25;;;;;;;;;;5028504;28;20657;-68
2023/04/16 00:23:46;;;;;;;89.43;33.22;;;;;;;;;;5030362;28;20202;-68
2023/04/16 00:26:12;;;;;;;101.38;33.47;;;;;;;;;;5035530;28;20189;-69
2023/04/16 00:28:37;;;;;;;94.53;32.25;;;;;;;;;;5042983;28;20234;-69
2023/04/16 00:31:02;;;;;;;102.20;34.58;;;;;;;;;;5030392;28;20786;-69
2023/04/16 00:33:28;;;;;;;99.88;34.67;;;;;;;;;;5035720;28;20641;-68
2023/04/16 00:35:55;;;;;;;97.68;33.97;;;;;;;;;;5045526;28;20193;-68
2023/04/16 00:38:20;;;;;;;114.70;34.63;;;;;;;;;;5035411;28;20253;-69
2023/04/16 00:40:45;;;;;;;96.57;32.95;;;;;;;;;;5035556;28;20375;-68
2023/04/16 00:43:18;;;;;;;96.55;34.67;;;;;;;;;;5048003;28;20256;-69
2023/04/16 00:45:44;;;;;;;100.82;33.88;;;;;;;;;;5035326;28;20224;-68
2023/04/16 00:48:09;;;;;;;94.00;35.05;;;;;;;;;;5047006;28;20220;-69
2023/04/16 00:50:35;;;;;;;87.22;33.28;;;;;;;;;;5045346;28;20193;-68
2023/04/16 00:53:01;;;;;;;97.45;33.92;;;;;;;;;;5028428;28;20187;-68
2023/04/16 00:55:26;;;;;;;88.35;33.42;;;;;;;;;;5034430;28;20209;-68
2023/04/16 00:57:54;;;;;;;86.85;33.55;;;;;;;;;;5030592;28;20511;-68
2023/04/16 01:00:20;;;;;;;91.90;34.47;;;;;;;;;;5037104;28;20213;-69
2023/04/16 01:02:45;;;;;;;76.43;33.45;;;;;;;;;;5047102;28;20688;-68
2023/04/16 01:05:11;;;;;;;82.28;33.78;;;;;;;;;;5032271;28;20235;-69
2023/04/16 01:07:36;;;;;;;85.97;34.05;;;;;;;;;;5028155;28;20564;-68
2023/04/16 01:10:02;;;;;;;78.80;34.70;;;;;;;;;;5036435;28;20220;-68
2023/04/16 01:12:27;;;;;;;88.03;34.15;;;;;;;;;;5047885;28;20189;-70
2023/04/16 01:14:53;;;;;;;86.32;34.97;;;;;;;;;;5036434;28;20200;-68
2023/04/16 01:17:18;;;;;;;89.30;34.60;;;;;;;;;;5036027;28;20223;-69
2023/04/16 01:19:44;;;;;;;88.55;35.53;;;;;;;;;;5047277;28;20200;-69
2023/04/16 01:22:09;;;;;;;86.63;34.90;;;;;;;;;;5041698;28;20174;-69
2023/04/16 01:24:35;;;;;;;87.57;35.95;;;;;;;;;;5035885;28;20711;-69
2023/04/16 01:27:00;;;;;;;84.63;36.65;;;;;;;;;;5033394;28;20182;-70
2023/04/16 01:29:26;;;;;;;88.05;37.13;;;;;;;;;;5030681;28;20193;-69
2023/04/16 01:31:51;;;;;;;86.57;35.38;;;;;;;;;;5033090;28;20170;-69
2023/04/16 01:34:17;;;;;;;92.18;35.88;;;;;;;;;;5046923;28;20577;-69
2023/04/16 01:36:42;;;;;;;90.65;36.60;;;;;;;;;;5047309;28;20251;-69
2023/04/16 01:39:10;;;;;;;82.93;34.72;;;;;;;;;;5038545;28;20186;-69
2023/04/16 01:41:36;;;;;;;87.20;35.60;;;;;;;;;;5036029;28;20694;-71
2023/04/16 01:44:01;;;;;;;88.05;35.00;;;;;;;;;;5045209;28;20269;-70
2023/04/16 01:46:28;;;;;;;94.43;37.58;;;;;;;;;;5038769;28;20190;-70
2023/04/16 01:48:54;;;;;;;84.20;37.28;;;;;;;;;;5038550;28;20731;-70
2023/04/16 01:51:20;;;;;;;83.03;36.03;;;;;;;;;;5038730;28;20234;-69
2023/04/16 01:53:45;;;;;;;95.63;37.65;;;;;;;;;;5044074;28;20196;-69
2023/04/16 01:56:11;;;;;;;87.60;36.22;;;;;;;;;;5045664;28;20616;-69
2023/04/16 01:58:36;;;;;;;92.07;36.03;;;;;;;;;;5034649;28;20184;-69
2023/04/16 02:01:02;;;;;;;86.30;36.33;;;;;;;;;;5040347;28;20217;-69
2023/04/16 02:03:28;;;;;;;95.60;38.25;;;;;;;;;;5051085;28;20209;-69
2023/04/16 02:05:53;;;;;;;83.70;35.70;;;;;;;;;;5037665;28;20179;-70
2023/04/16 02:08:19;;;;;;;91.80;37.33;;;;;;;;;;5049663;28;20453;-69
2023/04/16 02:10:46;;;;;;;96.00;35.95;;;;;;;;;;5050991;28;20555;-69
2023/04/16 02:13:12;;;;;;;84.80;34.95;;;;;;;;;;5045927;28;20181;-69
2023/04/16 02:15:37;;;;;;;96.57;35.88;;;;;;;;;;5041892;28;20323;-69
2023/04/16 02:18:02;;;;;;;83.18;34.70;;;;;;;;;;5032210;28;20275;-70
2023/04/16 02:20:28;;;;;;;85.85;35.25;;;;;;;;;;5044580;28;20186;-70
2023/04/16 02:22:53;;;;;;;87.38;34.67;;;;;;;;;;5043217;28;20202;-69
2023/04/16 02:25:18;;;;;;;81.90;34.28;;;;;;;;;;5031767;28;20289;-69
2023/04/16 02:27:44;;;;;;;79.82;34.92;;;;;;;;;;5042183;28;20551;-68
2023/04/16 02:30:10;;;;;;;74.13;33.53;;;;;;;;;;5041323;28;20221;-69
2023/04/16 02:32:35;;;;;;;81.07;34.00;;;;;;;;;;5049785;28;20664;-69
2023/04/16 02:35:02;;;;;;;76.80;33.38;;;;;;;;;;5038549;28;20212;-69
2023/04/16 02:37:28;;;;;;;78.93;33.40;;;;;;;;;;5050602;28;20185;-70
2023/04/16 02:39:53;;;;;;;75.32;34.22;;;;;;;;;;5049423;28;20659;-70
2023/04/16 02:42:19;;;;;;;76.97;34.25;;;;;;;;;;5047160;28;20181;-69
2023/04/16 02:44:44;;;;;;;77.75;34.28;;;;;;;;;;5044293;28;20561;-69
2023/04/16 02:47:10;;;;;;;77.80;34.33;;;;;;;;;;5045129;28;20193;-70
2023/04/16 02:49:35;;;;;;;80.05;36.03;;;;;;;;;;5041321;28;20703;-69
2023/04/16 02:52:00;;;;;;;75.60;35.53;;;;;;;;;;5035959;28;20195;-70
2023/04/16 02:54:26;;;;;;;77.22;35.38;;;;;;;;;;5049537;28;20609;-69
2023/04/16 02:56:51;;;;;;;86.25;36.65;;;;;;;;;;5047799;28;20197;-69
2023/04/16 02:59:16;;;;;;;78.93;35.60;;;;;;;;;;5034707;28;20189;-72
2023/04/16 03:01:42;;;;;;;77.93;35.55;;;;;;;;;;5048342;28;20236;-70
2023/04/16 03:04:08;;;;;;;78.07;36.15;;;;;;;;;;5049453;28;20308;-69
2023/04/16 03:06:33;;;;;;;72.55;35.97;;;;;;;;;;5045536;28;20190;-71
2023/04/16 03:08:58;;;;;;;82.53;38.10;;;;;;;;;;5028408;28;20280;-68
2023/04/16 03:11:24;;;;;;;73.60;35.88;;;;;;;;;;5040849;28;20660;-70
2023/04/16 03:13:49;;;;;;;76.90;37.00;;;;;;;;;;5039387;28;20186;-69
2023/04/16 03:16:15;;;;;;;69.13;34.28;;;;;;;;;;5049735;28;20181;-70
2023/04/16 03:18:40;;;;;;;72.38;36.35;;;;;;;;;;5048275;28;20201;-69
2023/04/16 03:21:05;;;;;;;76.15;36.17;;;;;;;;;;5049609;28;20337;-70
2023/04/16 03:23:31;;;;;;;80.53;36.33;;;;;;;;;;5037055;28;20215;-69
2023/04/16 03:25:56;;;;;;;75.25;37.88;;;;;;;;;;5041868;28;20626;-69
2023/04/16 03:28:22;;;;;;;74.07;34.67;;;;;;;;;;5045900;28;20750;-70
2023/04/16 03:30:51;;;;;;;71.97;35.47;;;;;;;;;;5047584;28;20226;-69
2023/04/16 03:33:18;;;;;;;74.45;37.17;;;;;;;;;;5043154;28;20185;-69
2023/04/16 03:35:43;;;;;;;67.82;34.47;;;;;;;;;;5045019;28;20259;-69
2023/04/16 03:38:08;;;;;;;72.20;36.47;;;;;;;;;;5048944;28;20193;-69
2023/04/16 03:40:34;;;;;;;73.22;36.15;;;;;;;;;;5029965;28;20220;-69
2023/04/16 03:42:59;;;;;;;71.82;34.92;;;;;;;;;;5040939;28;20224;-69
2023/04/16 03:45:25;;;;;;;74.05;35.20;;;;;;;;;;5031297;28;20237;-69
2023/04/16 03:47:51;;;;;;;81.68;37.47;;;;;;;;;;5034846;28;20181;-69
2023/04/16 03:50:19;;;;;;;65.78;35.38;;;;;;;;;;5044069;28;20407;-68
2023/04/16 03:52:45;;;;;;;68.85;34.97;;;;;;;;;;5037434;28;20193;-69
2023/04/16 03:55:11;;;;;;;73.80;36.40;;;;;;;;;;5041978;28;20695;-69
2023/04/16 03:57:37;;;;;;;74.45;35.72;;;;;;;;;;5044073;28;20546;-68
2023/04/16 04:00:03;;;;;;;78.07;34.63;;;;;;;;;;5046950;28;20601;-69
2023/04/16 04:02:28;;;;;;;77.63;36.72;;;;;;;;;;5048320;28;20517;-68
2023/04/16 04:04:54;;;;;;;78.32;36.63;;;;;;;;;;5028492;28;20200;-68
2023/04/16 04:07:19;;;;;;;74.47;36.33;;;;;;;;;;5046808;28;20248;-68
2023/04/16 04:09:44;;;;;;;76.55;34.58;;;;;;;;;;5034586;28;20201;-68
2023/04/16 04:12:10;;;;;;;71.18;34.83;;;;;;;;;;5041990;28;20186;-69
2023/04/16 04:14:38;;;;;;;70.93;35.67;;;;;;;;;;5034041;28;20198;-69
2023/04/16 04:17:07;;;;;;;68.30;34.08;;;;;;;;;;5044798;28;20174;-69
2023/04/16 04:19:33;;;;;;;79.05;36.88;;;;;;;;;;5043102;28;20185;-69
2023/04/16 04:21:58;;;;;;;76.38;34.80;;;;;;;;;;5043903;28;20178;-69
2023/04/16 04:24:25;;;;;;;78.60;36.78;;;;;;;;;;5048675;28;20221;-68
2023/04/16 04:26:50;;;;;;;66.32;35.00;;;;;;;;;;5035571;28;20212;-69
2023/04/16 04:29:15;;;;;;;67.65;35.08;;;;;;;;;;5039821;28;20280;-69
2023/04/16 04:31:41;;;;;;;73.97;36.05;;;;;;;;;;5042197;28;20189;-69
2023/04/16 04:34:06;;;;;;;74.82;36.28;;;;;;;;;;5039709;28;20661;-68
2023/04/16 04:36:32;;;;;;;75.55;37.95;;;;;;;;;;5040129;28;20189;-69
2023/04/16 04:38:57;;;;;;;81.55;37.25;;;;;;;;;;5028493;28;20269;-68
2023/04/16 04:41:23;;;;;;;75.22;37.38;;;;;;;;;;5031130;28;20269;-69
2023/04/16 04:43:48;;;;;;;72.03;36.70;;;;;;;;;;5032311;28;20567;-68
2023/04/16 04:46:14;;;;;;;80.57;37.40;;;;;;;;;;5045730;28;20656;-69
2023/04/16 04:48:39;;;;;;;76.45;36.88;;;;;;;;;;5032952;28;20201;-69
2023/04/16 04:51:05;;;;;;;88.47;39.22;;;;;;;;;;5035157;28;20196;-69
2023/04/16 04:53:30;;;;;;;77.97;36.03;;;;;;;;;;5027437;28;20595;-69
2023/04/16 04:55:55;;;;;;;77.60;36.45;;;;;;;;;;5039129;28;20220;-70
2023/04/16 04:58:21;;;;;;;76.93;37.22;;;;;;;;;;5028792;28;20183;-69
2023/04/16 05:00:46;;;;;;;79.97;36.97;;;;;;;;;;5030109;28;20216;-69
2023/04/16 05:03:12;;;;;;;82.60;36.22;;;;;;;;;;5034489;28;20694;-70
2023/04/16 05:05:39;;;;;;;83.05;36.95;;;;;;;;;;5046489;28;20274;-69
2023/04/16 05:08:05;;;;;;;84.85;36.67;;;;;;;;;;5039888;28;20693;-69
2023/04/16 05:10:30;;;;;;;80.05;36.40;;;;;;;;;;5034636;28;20437;-69
2023/04/16 05:12:55;;;;;;;81.18;37.50;;;;;;;;;;5034641;28;20269;-70
2023/04/16 05:15:21;;;;;;;80.35;36.03;;;;;;;;;;5029764;28;20190;-69
2023/04/16 05:17:46;;;;;;;82.85;38.15;;;;;;;;;;5039180;28;20181;-69
2023/04/16 05:20:12;;;;;;;85.80;36.53;;;;;;;;;;5025747;28;20666;-69
2023/04/16 05:22:37;;;;;;;83.65;37.15;;;;;;;;;;5045647;28;20238;-69
2023/04/16 05:25:03;;;;;;;75.93;34.22;;;;;;;;;;5043107;28;20194;-70
2023/04/16 05:27:28;;;;;;;81.20;36.25;;;;;;;;;;5045843;28;20687;-69
2023/04/16 05:29:53;;;;;;;78.90;35.78;;;;;;;;;;5044644;28;20290;-69
2023/04/16 05:32:19;;;;;;;76.32;34.78;;;;;;;;;;5041757;28;20208;-70
2023/04/16 05:34:44;;;;;;;75.45;35.20;;;;;;;;;;5042953;28;20561;-70
2023/04/16 05:37:09;;;;;;;73.32;34.67;;;;;;;;;;5039391;28;20186;-69
2023/04/16 05:39:35;;;;;;;70.38;35.40;;;;;;;;;;5032093;28;20617;-69
2023/04/16 05:42:00;;;;;;;75.60;35.53;;;;;;;;;;5039913;28;20189;-69
2023/04/16 05:44:26;;;;;;;74.70;35.65;;;;;;;;;;5034435;28;20220;-69
2023/04/16 05:46:51;;;;;;;73.25;36.45;;;;;;;;;;5043997;28;20189;-70
2023/04/16 05:49:17;;;;;;;73.75;36.63;;;;;;;;;;5039528;28;20185;-69
2023/04/16 05:51:43;;;;;;;75.38;35.10;;;;;;;;;;5046972;28;20657;-70
2023/04/16 05:54:08;;;;;;;74.75;36.60;;;;;;;;;;5041298;28;20193;-69
2023/04/16 05:56:34;;;;;;;73.22;34.53;;;;;;;;;;5039882;28;20196;-69
2023/04/16 05:58:59;;;;;;;67.20;34.42;;;;;;;;;;5033198;28;20618;-69
2023/04/16 06:01:24;;;;;;;63.92;32.88;;;;;;;;;;5043258;28;20301;-69
2023/04/16 06:03:50;;;;;;;64.28;32.70;;;;;;;;;;5043268;28;20350;-71
2023/04/16 06:06:15;;;;;;;62.55;33.55;;;;;;;;;;5042460;28;20196;-70
2023/04/16 06:08:41;;;;;;;58.45;32.17;;;;;;;;;;5028615;28;20300;-69
2023/04/16 06:11:06;;;;;;;56.97;30.52;;;;;;;;;;5046805;28;20793;-70
2023/04/16 06:13:31;;;;;;;54.92;30.85;;;;;;;;;;5039761;28;20221;-70
2023/04/16 06:15:57;;;;;;;56.45;30.73;;;;;;;;;;5031056;28;20229;-70
2023/04/16 06:18:22;;;;;;;54.03;31.45;;;;;;;;;;5046398;28;20546;-69
2023/04/16 06:20:47;;;;;;;51.92;30.58;;;;;;;;;;5027700;28;20273;-69
2023/04/16 06:23:13;;;;;;;50.45;29.67;;;;;;;;;;5041914;28;20603;-69
2023/04/16 06:25:38;;;;;;;48.20;29.08;;;;;;;;;;5036578;28;20197;-68
2023/04/16 06:28:04;;;;;;;50.65;30.23;;;;;;;;;;5032733;28;20182;-67
2023/04/16 06:30:29;;;;;;;50.30;30.40;;;;;;;;;;5038284;28;20316;-69
2023/04/16 06:32:55;;;;;;;52.28;29.27;;;;;;;;;;5042592;28;20508;-68
2023/04/16 06:35:20;;;;;;;49.15;28.75;;;;;;;;;;5036303;28;20184;-69
2023/04/16 06:37:46;;;;;;;50.20;29.40;;;;;;;;;;5039262;28;20281;-69
2023/04/16 06:40:11;;;;;;;50.30;29.33;;;;;;;;;;5038436;28;20201;-69
2023/04/16 06:42:37;;;;;;;49.85;29.40;;;;;;;;;;5043851;28;20338;-70
2023/04/16 06:45:03;;;;;;;52.17;30.35;;;;;;;;;;5046007;28;20660;-69
2023/04/16 06:47:28;;;;;;;48.63;29.13;;;;;;;;;;5041294;28;20185;-69
2023/04/16 06:49:54;;;;;;;49.35;29.10;;;;;;;;;;5038559;28;20190;-69
2023/04/16 06:52:19;;;;;;;47.35;28.25;;;;;;;;;;5037576;28;20174;-69
2023/04/16 06:54:44;;;;;;;52.97;29.67;;;;;;;;;;5037136;28;20545;-69
2023/04/16 06:57:10;;;;;;;48.67;28.50;;;;;;;;;;5044826;28;20193;-69
2023/04/16 06:59:35;;;;;;;50.45;28.80;;;;;;;;;;5049521;28;20182;-70
2023/04/16 07:02:01;;;;;;;44.63;26.95;;;;;;;;;;5049060;28;20558;-69
2023/04/16 07:04:26;;;;;;;49.53;29.05;;;;;;;;;;5037430;28;20259;-69
2023/04/16 07:06:51;;;;;;;46.22;28.30;;;;;;;;;;5049839;28;20190;-69
2023/04/16 07:09:17;;;;;;;43.15;27.50;;;;;;;;;;5039611;28;20497;-69
2023/04/16 07:11:43;;;;;;;48.47;28.17;;;;;;;;;;5040386;28;20192;-69
2023/04/16 07:14:08;;;;;;;48.97;28.90;;;;;;;;;;5048832;28;20181;-69
2023/04/16 07:16:33;;;;;;;48.60;28.20;;;;;;;;;;5038030;28;20291;-69
2023/04/16 07:18:59;;;;;;;48.13;28.65;;;;;;;;;;5043308;28;20221;-69
2023/04/16 07:21:25;;;;;;;49.30;28.13;;;;;;;;;;5029951;28;20182;-70
2023/04/16 07:23:50;;;;;;;48.70;27.30;;;;;;;;;;5042048;28;20280;-69
2023/04/16 07:26:16;;;;;;;46.63;27.80;;;;;;;;;;5036713;28;20653;-69
2023/04/16 07:28:41;;;;;;;46.92;28.70;;;;;;;;;;5048294;28;20289;-69
2023/04/16 07:31:07;;;;;;;48.58;28.45;;;;;;;;;;5048556;28;20245;-69
2023/04/16 07:33:32;;;;;;;47.67;28.27;;;;;;;;;;5047175;28;20186;-69
2023/04/16 07:35:58;;;;;;;45.22;27.52;;;;;;;;;;5040370;28;20252;-69
2023/04/16 07:38:23;;;;;;;48.25;28.00;;;;;;;;;;5039849;28;20229;-69
2023/04/16 07:40:48;;;;;;;44.92;27.58;;;;;;;;;;5044323;28;20190;-70
2023/04/16 07:43:15;;;;;;;52.90;29.73;;;;;;;;;;5042005;28;20213;-70
2023/04/16 07:45:41;;;;;;;53.03;30.75;;;;;;;;;;5038781;28;20660;-71
2023/04/16 07:48:06;;;;;;;47.03;28.42;;;;;;;;;;5040152;28;20209;-71
2023/04/16 07:50:32;;;;;;;48.53;28.02;;;;;;;;;;5040608;28;20197;-70
2023/04/16 07:52:57;;;;;;;46.25;29.23;;;;;;;;;;5037760;28;20392;-70
2023/04/16 07:55:22;;;;;;;47.78;28.33;;;;;;;;;;5040141;28;20189;-69
2023/04/16 07:57:48;;;;;;;51.25;27.27;;;;;;;;;;5037967;28;20194;-69
2023/04/16 08:00:13;;;;;;;46.83;27.33;;;;;;;;;;5044571;28;20197;-70
2023/04/16 08:02:40;;;;;;;46.22;27.13;;;;;;;;;;5038452;28;20193;-70
2023/04/16 08:05:06;;;;;;;46.72;27.70;;;;;;;;;;5047115;28;20272;-69
2023/04/16 08:07:31;;;;;;;41.78;26.17;;;;;;;;;;5042615;28;20296;-69
2023/04/16 08:09:56;;;;;;;43.63;25.70;;;;;;;;;;5028494;28;20666;-69
2023/04/16 08:12:22;;;;;;;38.40;24.85;;;;;;;;;;5037265;28;20186;-69
2023/04/16 08:14:47;;;;;;;43.47;26.10;;;;;;;;;;5044959;28;20260;-68
2023/04/16 08:17:16;;;;;;;41.92;26.85;;;;;;;;;;5037302;28;20189;-69
2023/04/16 08:19:43;;;;;;;40.92;26.23;;;;;;;;;;5031100;28;20280;-69
2023/04/16 08:22:10;;;;;;;41.88;25.23;;;;;;;;;;5044078;28;20195;-69
2023/04/16 08:24:36;;;;;;;36.33;23.95;;;;;;;;;;5032877;28;20213;-70
2023/04/16 08:27:01;;;;;;;40.95;24.83;;;;;;;;;;5043718;28;20269;-71
2023/04/16 08:29:26;;;;;;;43.85;24.60;;;;;;;;;;5047889;28;20323;-70
2023/04/16 08:31:52;;;;;;;38.50;24.75;;;;;;;;;;5038268;28;20618;-70
2023/04/16 08:34:18;;;;;;;43.90;25.75;;;;;;;;;;5038550;28;20265;-71
2023/04/16 08:36:44;;;;;;;41.80;25.15;;;;;;;;;;5046482;28;20189;-70
2023/04/16 08:39:10;;;;;;;43.13;25.77;;;;;;;;;;5038658;28;20321;-69
2023/04/16 08:41:39;;;;;;;39.20;25.15;;;;;;;;;;5030940;28;20647;-69
2023/04/16 08:44:07;;;;;;;37.88;23.70;;;;;;;;;;5048057;28;20213;-68
2023/04/16 08:46:36;;;;;;;38.85;24.50;;;;;;;;;;5039783;28;20556;-70
2023/04/16 08:49:05;;;;;;;40.85;24.27;;;;;;;;;;5039241;28;20178;-71
2023/04/16 08:51:33;;;;;;;40.38;24.48;;;;;;;;;;5034871;28;20565;-71
2023/04/16 08:54:03;;;;;;;39.70;24.67;;;;;;;;;;5036869;28;20258;-69
2023/04/16 08:56:30;;;;;;;35.97;22.70;;;;;;;;;;5032837;28;20272;-70
2023/04/16 08:58:57;;;;;;;38.75;23.55;;;;;;;;;;5032545;28;20621;-70
2023/04/16 09:01:25;;;;;;;39.35;24.25;;;;;;;;;;5042382;28;20206;-69
2023/04/16 09:03:51;;;;;;;36.70;22.85;;;;;;;;;;5038551;28;20214;-69
2023/04/16 09:06:17;;;;;;;39.35;23.73;;;;;;;;;;5030507;28;20245;-70
2023/04/16 09:08:46;;;;;;;36.67;23.38;;;;;;;;;;5037458;28;20190;-70
2023/04/16 09:11:14;;;;;;;33.67;22.33;;;;;;;;;;5042458;28;20185;-69
2023/04/16 09:13:39;;;;;;;34.63;22.02;;;;;;;;;;5022156;28;20266;-70
2023/04/16 09:16:06;;;;;;;36.92;23.23;;;;;;;;;;5028521;28;20268;-69
2023/04/16 09:18:31;;;;;;;37.85;23.20;;;;;;;;;;5039201;28;20677;-69
2023/04/16 09:20:57;;;;;;;36.53;21.63;;;;;;;;;;5035157;28;20281;-70
2023/04/16 09:23:23;;;;;;;32.67;21.52;;;;;;;;;;5039718;28;20210;-70
2023/04/16 09:25:49;;;;;;;31.60;21.05;;;;;;;;;;5039175;28;20516;-69
2023/04/16 09:28:52;;;;;;;32.00;21.63;;;;;;;;;;5045822;28;20260;-69
2023/04/16 09:31:18;;;;;;;33.60;21.33;;;;;;;;;;5033245;28;20329;-69
2023/04/16 09:34:01;;;;;;;32.35;21.65;;;;;;;;;;5038442;28;20193;-69
2023/04/16 09:36:27;;;;;;;34.05;20.52;;;;;;;;;;5037510;28;20196;-69
2023/04/16 09:38:52;;;;;;;31.33;20.15;;;;;;;;;;5023860;28;20197;-69
2023/04/16 09:41:23;;;;;;;33.13;20.35;;;;;;;;;;5043855;28;20395;-68
2023/04/16 09:44:00;;;;;;;32.03;19.70;;;;;;;;;;5040168;28;20263;-68
2023/04/16 09:46:41;;;;;;;33.17;20.17;;;;;;;;;;5025548;28;20189;-68
2023/04/16 09:49:13;;;;;;;33.38;19.67;;;;;;;;;;5041977;28;20189;-70
2023/04/16 09:51:42;;;;;;;35.65;21.17;;;;;;;;;;5037635;28;20273;-69
2023/04/16 09:54:08;;;;;;;32.30;21.58;;;;;;;;;;5043625;28;20235;-69
2023/04/16 09:56:45;;;;;;;32.85;21.65;;;;;;;;;;5040008;28;20818;-71
2023/04/16 09:59:20;;;;;;;30.30;20.48;;;;;;;;;;5039623;28;20193;-68
2023/04/16 10:01:48;;;;;;;31.60;19.88;;;;;;;;;;5043813;28;20205;-74
2023/04/16 10:04:14;;;;;;;34.70;20.17;;;;;;;;;;5041418;28;20626;-69
2023/04/16 10:06:40;;;;;;;31.70;19.85;;;;;;;;;;5044808;28;20232;-69
2023/04/16 10:09:09;;;;;;;32.00;19.55;;;;;;;;;;5047330;28;20225;-69
2023/04/16 10:11:35;;;;;;;31.52;19.15;;;;;;;;;;5047170;28;20794;-69
2023/04/16 10:14:00;;;;;;;30.23;19.90;;;;;;;;;;5044806;28;20186;-68
2023/04/16 10:16:26;;;;;;;29.02;19.65;;;;;;;;;;5045491;28;20202;-70
2023/04/16 10:18:53;;;;;;;35.00;19.23;;;;;;;;;;5039931;28;20200;-69
2023/04/16 10:21:19;;;;;;;27.20;18.45;;;;;;;;;;5048009;28;20182;-69
2023/04/16 10:23:45;;;;;;;28.92;18.88;;;;;;;;;;5047789;28;20213;-69
2023/04/16 10:26:10;;;;;;;27.35;19.02;;;;;;;;;;5044213;28;20207;-69
2023/04/16 10:28:36;;;;;;;31.42;18.75;;;;;;;;;;5044193;28;20666;-70
2023/04/16 10:31:04;;;;;;;28.98;18.90;;;;;;;;;;5038843;28;20241;-69
2023/04/16 10:33:32;;;;;;;29.70;19.40;;;;;;;;;;5046005;28;20185;-69
2023/04/16 10:36:13;;;;;;;30.88;19.08;;;;;;;;;;5048381;28;20636;-68
2023/04/16 10:38:46;;;;;;;30.08;18.52;;;;;;;;;;5047584;28;20181;-68
2023/04/16 10:41:12;;;;;;;29.85;19.17;;;;;;;;;;5045558;28;20568;-68
2023/04/16 10:43:48;;;;;;;27.70;19.13;;;;;;;;;;5042674;28;20212;-69
2023/04/16 10:46:21;;;;;;;29.80;18.70;;;;;;;;;;5044029;28;20185;-69
2023/04/16 10:48:48;;;;;;;29.50;19.15;;;;;;;;;;5041178;28;20181;-68
2023/04/16 10:51:26;;;;;;;29.60;18.85;;;;;;;;;;5045264;28;20200;-70
2023/04/16 10:53:54;;;;;;;34.67;19.80;;;;;;;;;;5042319;28;20280;-69
2023/04/16 10:56:26;;;;;;;28.10;18.98;;;;;;;;;;5034319;28;20485;-68
2023/04/16 10:58:56;;;;;;;26.45;18.92;;;;;;;;;;5042152;28;20192;-70
2023/04/16 11:01:36;;;;;;;31.48;19.95;;;;;;;;;;5039414;28;20673;-68
2023/04/16 11:04:20;;;;;;;28.50;18.70;;;;;;;;;;5037919;28;20267;-68
2023/04/16 11:07:09;;;;;;;28.38;19.13;;;;;;;;;;5035563;28;20581;-69
2023/04/16 11:09:44;;;;;;;30.83;19.58;;;;;;;;;;5041479;28;20197;-70
2023/04/16 11:12:12;;;;;;;27.98;18.42;;;;;;;;;;5043304;28;20189;-70
2023/04/16 11:14:42;;;;;;;27.83;18.50;;;;;;;;;;5032453;28;20198;-68
2023/04/16 11:17:08;;;;;;;28.50;18.50;;;;;;;;;;5032688;28;20195;-68
2023/04/16 11:19:37;;;;;;;29.13;19.38;;;;;;;;;;5032611;28;20656;-69
2023/04/16 11:22:03;;;;;;;30.73;18.92;;;;;;;;;;5031297;28;20661;-69
2023/04/16 11:24:30;;;;;;;26.33;17.27;;;;;;;;;;5042731;28;20241;-68
2023/04/16 11:26:55;;;;;;;26.27;18.58;;;;;;;;;;5042138;28;20629;-67
2023/04/16 11:29:21;;;;;;;27.17;17.90;;;;;;;;;;5043845;28;20226;-68
2023/04/16 11:31:53;;;;;;;26.98;18.45;;;;;;;;;;5033152;28;20189;-68
2023/04/16 11:34:19;;;;;;;28.23;18.17;;;;;;;;;;5036725;28;20265;-69
2023/04/16 11:36:50;;;;;;;27.30;17.50;;;;;;;;;;5037657;28;20743;-69
2023/04/16 11:39:16;;;;;;;26.23;18.23;;;;;;;;;;5030754;28;20243;-69
2023/04/16 11:41:47;;;;;;;28.00;18.17;;;;;;;;;;5031959;28;20189;-68
2023/04/16 11:44:17;;;;;;;27.60;17.73;;;;;;;;;;5040768;28;20208;-69
2023/04/16 11:46:42;;;;;;;26.92;18.98;;;;;;;;;;5029870;28;20289;-68
2023/04/16 11:49:08;;;;;;;29.02;18.65;;;;;;;;;;5038241;28;20182;-68
2023/04/16 11:51:38;;;;;;;26.83;17.58;;;;;;;;;;5047010;28;20189;-69
2023/04/16 11:54:05;;;;;;;28.52;18.52;;;;;;;;;;5044724;28;20202;-69
2023/04/16 11:56:33;;;;;;;28.15;17.25;;;;;;;;;;5036739;28;20275;-68
2023/04/16 11:59:08;;;;;;;26.77;17.92;;;;;;;;;;5040720;28;20213;-68
2023/04/16 12:01:35;;;;;;;24.08;16.60;;;;;;;;;;5033431;28;20249;-69
2023/04/16 12:04:01;;;;;;;28.45;18.50;;;;;;;;;;5047451;28;20213;-68
2023/04/16 12:06:27;;;;;;;25.50;17.38;;;;;;;;;;5033896;28;20709;-69
2023/04/16 12:08:52;;;;;;;21.58;16.88;;;;;;;;;;5037712;28;20546;-69
2023/04/16 12:11:18;;;;;;;27.42;17.85;;;;;;;;;;5034810;28;20475;-68
2023/04/16 12:14:10;;;;;;;25.85;17.63;;;;;;;;;;5035287;28;20221;-69
2023/04/16 12:16:35;;;;;;;26.00;16.92;;;;;;;;;;5048225;28;20261;-71
2023/04/16 12:19:02;;;;;;;23.30;16.75;;;;;;;;;;5046513;28;20638;-69
2023/04/16 12:21:39;;;;;;;22.25;15.15;;;;;;;;;;5034407;28;20188;-69
2023/04/16 12:24:06;;;;;;;25.48;16.38;;;;;;;;;;5044127;28;20208;-69
2023/04/16 12:26:43;;;;;;;24.65;15.73;;;;;;;;;;5035431;28;20192;-68
2023/04/16 12:29:15;;;;;;;22.35;15.05;;;;;;;;;;5034461;28;20247;-68
2023/04/16 12:31:40;;;;;;;20.00;16.20;;;;;;;;;;5046721;28;20829;-69
2023/04/16 12:34:06;;;;;;;25.00;16.17;;;;;;;;;;5046468;28;20193;-68
2023/04/16 12:36:31;;;;;;;23.58;16.55;;;;;;;;;;5042350;28;20209;-69
2023/04/16 12:38:57;;;;;;;23.73;15.30;;;;;;;;;;5034820;28;20185;-68
2023/04/16 12:41:22;;;;;;;21.50;14.82;;;;;;;;;;5036671;28;20250;-67
2023/04/16 12:43:48;;;;;;;22.35;15.18;;;;;;;;;;5032905;28;20336;-68
2023/04/16 12:46:13;;;;;;;23.88;15.60;;;;;;;;;;5042427;28;20177;-70
2023/04/16 12:48:38;;;;;;;23.33;16.63;;;;;;;;;;5047737;28;20886;-69
2023/04/16 12:51:04;;;;;;;23.88;17.33;;;;;;;;;;5041461;28;20256;-69
2023/04/16 12:53:30;;;;;;;23.73;15.45;;;;;;;;;;5032461;28;20529;-69
2023/04/16 12:55:55;;;;;;;28.17;15.80;;;;;;;;;;5042348;28;20189;-68
2023/04/16 12:58:20;;;;;;;22.13;15.68;;;;;;;;;;5043324;28;20189;-68
2023/04/16 13:00:46;;;;;;;22.17;15.55;;;;;;;;;;5044640;28;20217;-68
2023/04/16 13:03:11;;;;;;;27.52;16.02;;;;;;;;;;5036688;28;20218;-68
2023/04/16 13:05:36;;;;;;;22.58;16.30;;;;;;;;;;5046115;28;20193;-68
2023/04/16 13:08:02;;;;;;;20.38;14.68;;;;;;;;;;5045894;28;20683;-68
2023/04/16 13:10:27;;;;;;;21.00;14.50;;;;;;;;;;5042518;28;20204;-67
2023/04/16 13:12:53;;;;;;;22.77;15.23;;;;;;;;;;5048019;28;20190;-68
2023/04/16 13:15:18;;;;;;;24.15;15.55;;;;;;;;;;5043161;28;20193;-67
2023/04/16 13:17:43;;;;;;;22.25;15.40;;;;;;;;;;5043549;28;20634;-68
2023/04/16 13:20:09;;;;;;;24.63;15.45;;;;;;;;;;5033959;28;20193;-68
2023/04/16 13:22:35;;;;;;;23.27;14.75;;;;;;;;;;5028239;28;20603;-67
2023/04/16 13:25:00;;;;;;;21.92;14.93;;;;;;;;;;5039240;28;20210;-68
2023/04/16 13:27:25;;;;;;;20.92;12.65;;;;;;;;;;5027752;28;20206;-69
2023/04/16 13:29:51;;;;;;;19.63;13.30;;;;;;;;;;5036502;28;20512;-68
2023/04/16 13:32:17;;;;;;;21.05;14.40;;;;;;;;;;5034004;28;20209;-69
2023/04/16 13:34:43;;;;;;;22.75;13.82;;;;;;;;;;5040408;28;20243;-68
2023/04/16 13:37:08;;;;;;;21.30;13.70;;;;;;;;;;5034995;28;20572;-70
2023/04/16 13:39:33;;;;;;;23.77;13.75;;;;;;;;;;5037053;28;20282;-69
2023/04/16 13:41:59;;;;;;;23.02;13.82;;;;;;;;;;5047592;28;20231;-68
2023/04/16 13:44:24;;;;;;;21.13;12.85;;;;;;;;;;5044248;28;20217;-68
2023/04/16 13:46:50;;;;;;;20.20;13.00;;;;;;;;;;5037487;28;20236;-68
2023/04/16 13:49:15;;;;;;;22.65;13.02;;;;;;;;;;5036184;28;20884;-69
2023/04/16 13:51:45;;;;;;;17.30;12.85;;;;;;;;;;5042566;28;20196;-68
2023/04/16 13:54:10;;;;;;;30.45;15.55;;;;;;;;;;5037529;28;20615;-69
2023/04/16 13:56:35;;;;;;;29.95;15.73;;;;;;;;;;5039931;28;20498;-67
2023/04/16 13:59:01;;;;;;;28.00;15.23;;;;;;;;;;5043278;28;20204;-68
2023/04/16 14:01:27;;;;;;;36.50;16.45;;;;;;;;;;5045164;28;20300;-67
2023/04/16 14:03:52;;;;;;;37.70;16.92;;;;;;;;;;5048272;28;20551;-67
2023/04/16 14:06:18;;;;;;;36.33;17.27;;;;;;;;;;5039450;28;20293;-67
2023/04/16 14:08:44;;;;;;;33.05;15.30;;;;;;;;;;5035865;28;20174;-70
2023/04/16 14:11:10;;;;;;;35.92;17.20;;;;;;;;;;5047679;28;20193;-68
2023/04/16 14:13:36;;;;;;;31.45;15.65;;;;;;;;;;5044060;28;20252;-68